createdAt,value
2023-03-27T00:00:19.228Z,354.00
2023-03-27T00:00:49.331Z,352.00
2023-03-27T00:01:19.446Z,353.00
2023-03-27T00:01:49.588Z,354.00
2023-03-27T00:02:19.678Z,353.00
2023-03-27T00:02:49.745Z,353.00
2023-03-27T00:03:19.770Z,352.00
2023-03-27T00:03:50.000Z,352.00
2023-03-27T00:04:19.828Z,353.00
2023-03-27T00:04:49.775Z,353.00
2023-03-27T00:05:19.795Z,355.00
2023-03-27T00:05:49.822Z,356.00
2023-03-27T00:06:19.851Z,354.00
2023-03-27T00:06:49.876Z,355.00
2023-03-27T00:07:19.936Z,358.00
2023-03-27T00:07:49.965Z,358.00
2023-03-27T00:08:19.991Z,359.00
2023-03-27T00:08:50.016Z,361.00
2023-03-27T00:09:20.073Z,362.00
2023-03-27T00:09:50.096Z,364.00
2023-03-27T00:10:20.111Z,363.00
2023-03-27T00:10:50.134Z,362.00
2023-03-27T00:11:20.178Z,363.00
2023-03-27T00:11:50.255Z,361.00
2023-03-27T00:12:20.268Z,361.00
2023-03-27T00:12:50.301Z,360.00
2023-03-27T00:13:20.323Z,359.00
2023-03-27T00:13:51.305Z,359.00
2023-03-27T00:14:20.473Z,359.00
2023-03-27T00:14:50.497Z,360.00
2023-03-27T00:15:20.515Z,360.00
2023-03-27T00:15:50.538Z,358.00
2023-03-27T00:16:20.588Z,357.00
2023-03-27T00:16:50.610Z,356.00
2023-03-27T00:17:20.634Z,354.00
2023-03-27T00:17:50.652Z,353.00
2023-03-27T00:18:20.721Z,354.00
2023-03-27T00:18:50.726Z,354.00
2023-03-27T00:19:20.760Z,352.00
2023-03-27T00:19:50.784Z,351.00
2023-03-27T00:20:20.805Z,352.00
2023-03-27T00:20:50.841Z,353.00
2023-03-27T00:21:20.866Z,354.00
2023-03-27T00:21:50.884Z,355.00
2023-03-27T00:22:20.914Z,357.00
2023-03-27T00:22:50.926Z,359.00
2023-03-27T00:23:20.961Z,361.00
2023-03-27T00:23:50.980Z,360.00
2023-03-27T00:24:20.999Z,359.00
2023-03-27T00:24:51.107Z,358.00
2023-03-27T00:25:21.126Z,359.00
2023-03-27T00:25:51.149Z,358.00
2023-03-27T00:26:21.169Z,358.00
2023-03-27T00:26:51.192Z,359.00
2023-03-27T00:27:21.214Z,358.00
2023-03-27T00:27:51.251Z,358.00
2023-03-27T00:28:21.290Z,359.00
2023-03-27T00:28:51.298Z,359.00
2023-03-27T00:29:21.335Z,361.00
2023-03-27T00:29:51.357Z,362.00
2023-03-27T00:30:21.394Z,360.00
2023-03-27T00:30:51.453Z,359.00
2023-03-27T00:31:21.544Z,357.00
2023-03-27T00:31:51.614Z,358.00
2023-03-27T00:32:21.638Z,359.00
2023-03-27T00:32:51.664Z,361.00
2023-03-27T00:33:21.712Z,361.00
2023-03-27T00:33:51.874Z,362.00
2023-03-27T00:34:21.754Z,360.00
2023-03-27T00:35:21.783Z,359.00
2023-03-27T00:35:51.830Z,358.00
2023-03-27T00:36:21.872Z,357.00
2023-03-27T00:36:51.905Z,356.00
2023-03-27T00:37:21.960Z,357.00
2023-03-27T00:37:51.960Z,356.00
2023-03-27T00:38:21.973Z,355.00
2023-03-27T00:38:52.026Z,355.00
2023-03-27T00:39:22.043Z,356.00
2023-03-27T00:39:52.069Z,357.00
2023-03-27T00:40:22.082Z,357.00
2023-03-27T00:40:52.150Z,357.00
2023-03-27T00:41:22.232Z,357.00
2023-03-27T00:41:52.172Z,358.00
2023-03-27T00:42:22.205Z,359.00
2023-03-27T00:42:52.227Z,359.00
2023-03-27T00:43:22.246Z,359.00
2023-03-27T00:43:52.262Z,359.00
2023-03-27T00:44:22.285Z,360.00
2023-03-27T00:44:52.309Z,360.00
2023-03-27T00:45:22.369Z,358.00
2023-03-27T00:45:52.411Z,358.00
2023-03-27T00:46:22.448Z,357.00
2023-03-27T00:46:52.446Z,358.00
2023-03-27T00:47:22.475Z,359.00
2023-03-27T00:47:52.525Z,358.00
2023-03-27T00:48:22.565Z,359.00
2023-03-27T00:48:52.595Z,360.00
2023-03-27T00:49:22.704Z,362.00
2023-03-27T00:49:52.720Z,360.00
2023-03-27T00:50:22.755Z,360.00
2023-03-27T00:50:52.777Z,359.00
2023-03-27T00:51:22.804Z,359.00
2023-03-27T00:51:52.843Z,358.00
2023-03-27T00:52:22.853Z,358.00
2023-03-27T00:52:52.876Z,357.00
2023-03-27T00:53:22.901Z,358.00
2023-03-27T00:53:52.915Z,359.00
2023-03-27T00:54:22.940Z,360.00
2023-03-27T00:54:52.956Z,360.00
2023-03-27T00:55:23.062Z,358.00
2023-03-27T00:55:53.182Z,359.00
2023-03-27T00:56:23.291Z,358.00
2023-03-27T00:56:53.419Z,358.00
2023-03-27T00:57:23.423Z,359.00
2023-03-27T00:57:53.520Z,362.00
2023-03-27T00:58:23.632Z,361.00
2023-03-27T00:58:53.779Z,363.00
2023-03-27T00:59:23.771Z,362.00
2023-03-27T00:59:53.879Z,362.00
2023-03-27T01:00:23.984Z,361.00
2023-03-27T01:00:54.271Z,363.00
2023-03-27T01:01:24.165Z,362.00
2023-03-27T01:01:54.237Z,359.00
2023-03-27T01:02:24.242Z,361.00
2023-03-27T01:02:54.309Z,360.00
2023-03-27T01:03:24.367Z,361.00
2023-03-27T01:03:54.335Z,361.00
2023-03-27T01:04:24.344Z,361.00
2023-03-27T01:04:54.318Z,362.00
2023-03-27T01:05:54.447Z,364.00
2023-03-27T01:06:24.474Z,363.00
2023-03-27T01:06:54.491Z,364.00
2023-03-27T01:07:24.522Z,364.00
2023-03-27T01:08:01.288Z,363.00
2023-03-27T01:08:24.588Z,365.00
2023-03-27T01:08:54.588Z,365.00
2023-03-27T01:09:24.609Z,363.00
2023-03-27T01:09:54.629Z,364.00
2023-03-27T01:10:24.658Z,363.00
2023-03-27T01:10:55.024Z,360.00
2023-03-27T01:11:24.677Z,362.00
2023-03-27T01:11:54.700Z,362.00
2023-03-27T01:12:24.727Z,362.00
2023-03-27T01:12:54.744Z,362.00
2023-03-27T01:13:24.771Z,362.00
2023-03-27T01:13:54.808Z,361.00
2023-03-27T01:14:24.826Z,361.00
2023-03-27T01:14:54.854Z,360.00
2023-03-27T01:15:24.906Z,361.00
2023-03-27T01:15:54.948Z,361.00
2023-03-27T01:16:24.946Z,360.00
2023-03-27T01:16:54.966Z,362.00
2023-03-27T01:17:25.077Z,361.00
2023-03-27T01:17:55.045Z,362.00
2023-03-27T01:18:25.099Z,361.00
2023-03-27T01:18:55.118Z,360.00
2023-03-27T01:19:25.143Z,361.00
2023-03-27T01:19:55.196Z,359.00
2023-03-27T01:20:25.194Z,359.00
2023-03-27T01:20:55.509Z,359.00
2023-03-27T01:21:25.319Z,357.00
2023-03-27T01:21:55.341Z,358.00
2023-03-27T01:22:25.381Z,360.00
2023-03-27T01:22:55.389Z,361.00
2023-03-27T01:23:35.934Z,362.00
2023-03-27T01:23:59.559Z,363.00
2023-03-27T01:24:25.492Z,364.00
2023-03-27T01:24:55.514Z,364.00
2023-03-27T01:25:25.536Z,365.00
2023-03-27T01:25:55.574Z,365.00
2023-03-27T01:26:36.241Z,366.00
2023-03-27T01:26:55.639Z,367.00
2023-03-27T01:27:25.664Z,366.00
2023-03-27T01:27:55.677Z,366.00
2023-03-27T01:28:25.702Z,368.00
2023-03-27T01:28:55.722Z,367.00
2023-03-27T01:29:25.740Z,366.00
2023-03-27T01:29:55.769Z,366.00
2023-03-27T01:30:25.799Z,365.00
2023-03-27T01:30:56.035Z,366.00
2023-03-27T01:31:25.909Z,366.00
2023-03-27T01:31:55.941Z,368.00
2023-03-27T01:32:26.044Z,369.00
2023-03-27T01:32:56.028Z,369.00
2023-03-27T01:33:26.046Z,371.00
2023-03-27T01:33:56.062Z,370.00
2023-03-27T01:34:26.105Z,369.00
2023-03-27T01:35:01.502Z,368.00
2023-03-27T01:35:26.252Z,367.00
2023-03-27T01:35:56.288Z,367.00
2023-03-27T01:36:26.279Z,367.00
2023-03-27T01:36:56.309Z,367.00
2023-03-27T01:37:26.322Z,366.00
2023-03-27T01:37:56.360Z,367.00
2023-03-27T01:38:26.371Z,365.00
2023-03-27T01:38:56.395Z,365.00
2023-03-27T01:39:26.417Z,364.00
2023-03-27T01:39:56.436Z,364.00
2023-03-27T01:40:26.461Z,365.00
2023-03-27T01:40:56.682Z,366.00
2023-03-27T01:41:26.562Z,367.00
2023-03-27T01:41:56.563Z,367.00
2023-03-27T01:42:26.601Z,365.00
2023-03-27T01:42:56.621Z,366.00
2023-03-27T01:43:26.634Z,366.00
2023-03-27T01:43:56.665Z,365.00
2023-03-27T01:44:26.688Z,366.00
2023-03-27T01:44:56.730Z,366.00
2023-03-27T01:45:26.745Z,366.00
2023-03-27T01:45:56.765Z,366.00
2023-03-27T01:46:26.864Z,366.00
2023-03-27T01:46:56.958Z,365.00
2023-03-27T01:47:27.014Z,363.00
2023-03-27T01:47:57.055Z,365.00
2023-03-27T01:48:27.076Z,366.00
2023-03-27T01:48:57.099Z,365.00
2023-03-27T01:49:27.119Z,366.00
2023-03-27T01:49:57.141Z,368.00
2023-03-27T01:50:27.155Z,369.00
2023-03-27T01:50:57.421Z,368.00
2023-03-27T01:51:27.203Z,368.00
2023-03-27T01:51:57.243Z,369.00
2023-03-27T01:52:27.248Z,369.00
2023-03-27T01:52:57.270Z,368.00
2023-03-27T01:53:27.315Z,369.00
2023-03-27T01:53:57.327Z,369.00
2023-03-27T01:54:27.350Z,367.00
2023-03-27T01:54:57.360Z,365.00
2023-03-27T01:55:27.460Z,364.00
2023-03-27T01:55:57.551Z,364.00
2023-03-27T01:56:27.660Z,364.00
2023-03-27T01:56:57.737Z,366.00
2023-03-27T01:57:27.747Z,366.00
2023-03-27T01:57:57.857Z,366.00
2023-03-27T01:58:27.972Z,366.00
2023-03-27T01:58:58.073Z,367.00
2023-03-27T01:59:28.186Z,368.00
2023-03-27T01:59:58.297Z,367.00
2023-03-27T02:00:28.337Z,366.00
2023-03-27T02:00:58.338Z,365.00
2023-03-27T02:01:28.473Z,364.00
2023-03-27T02:01:58.444Z,365.00
2023-03-27T02:02:28.589Z,365.00
2023-03-27T02:02:58.597Z,364.00
2023-03-27T02:03:28.598Z,364.00
2023-03-27T02:03:58.704Z,363.00
2023-03-27T02:04:28.837Z,363.00
2023-03-27T02:04:58.984Z,362.00
2023-03-27T02:05:29.017Z,362.00
2023-03-27T02:05:59.050Z,365.00
2023-03-27T02:06:29.050Z,365.00
2023-03-27T02:06:59.086Z,365.00
2023-03-27T02:07:29.104Z,364.00
2023-03-27T02:07:59.142Z,363.00
2023-03-27T02:08:29.155Z,365.00
2023-03-27T02:08:59.166Z,363.00
2023-03-27T02:09:29.187Z,363.00
2023-03-27T02:09:59.214Z,360.00
2023-03-27T02:10:29.238Z,361.00
2023-03-27T02:10:59.413Z,362.00
2023-03-27T02:11:29.376Z,362.00
2023-03-27T02:11:59.425Z,363.00
2023-03-27T02:12:29.425Z,364.00
2023-03-27T02:12:59.461Z,363.00
2023-03-27T02:13:29.481Z,363.00
2023-03-27T02:13:59.516Z,364.00
2023-03-27T02:14:29.532Z,364.00
2023-03-27T02:15:24.839Z,364.00
2023-03-27T02:15:29.601Z,364.00
2023-03-27T02:15:59.665Z,366.00
2023-03-27T02:16:29.689Z,365.00
2023-03-27T02:16:59.708Z,365.00
2023-03-27T02:17:29.741Z,365.00
2023-03-27T02:17:59.795Z,364.00
2023-03-27T02:18:29.826Z,366.00
2023-03-27T02:18:59.856Z,366.00
2023-03-27T02:19:29.889Z,367.00
2023-03-27T02:19:59.913Z,366.00
2023-03-27T02:20:29.930Z,366.00
2023-03-27T02:20:59.951Z,364.00
2023-03-27T02:21:29.996Z,365.00
2023-03-27T02:21:59.997Z,364.00
2023-03-27T02:22:37.286Z,365.00
2023-03-27T02:23:00.068Z,367.00
2023-03-27T02:23:30.084Z,368.00
2023-03-27T02:24:00.109Z,369.00
2023-03-27T02:24:30.121Z,370.00
2023-03-27T02:25:00.163Z,370.00
2023-03-27T02:25:30.177Z,370.00
2023-03-27T02:26:00.205Z,370.00
2023-03-27T02:26:30.239Z,371.00
2023-03-27T02:27:00.274Z,370.00
2023-03-27T02:27:30.284Z,370.00
2023-03-27T02:28:00.320Z,370.00
2023-03-27T02:28:30.337Z,369.00
2023-03-27T02:29:00.450Z,369.00
2023-03-27T02:29:30.475Z,365.00
2023-03-27T02:30:00.503Z,363.00
2023-03-27T02:30:30.518Z,364.00
2023-03-27T02:31:05.685Z,363.00
2023-03-27T02:31:34.158Z,365.00
2023-03-27T02:32:01.112Z,365.00
2023-03-27T02:32:30.796Z,364.00
2023-03-27T02:33:00.862Z,363.00
2023-03-27T02:33:30.880Z,363.00
2023-03-27T02:34:00.901Z,361.00
2023-03-27T02:34:30.922Z,361.00
2023-03-27T02:35:00.950Z,363.00
2023-03-27T02:35:30.991Z,365.00
2023-03-27T02:36:01.053Z,367.00
2023-03-27T02:36:31.067Z,368.00
2023-03-27T02:37:01.124Z,368.00
2023-03-27T02:37:31.996Z,369.00
2023-03-27T02:38:01.188Z,371.00
2023-03-27T02:38:31.214Z,371.00
2023-03-27T02:39:01.235Z,370.00
2023-03-27T02:39:31.259Z,371.00
2023-03-27T02:40:01.281Z,372.00
2023-03-27T02:40:31.324Z,371.00
2023-03-27T02:41:01.341Z,371.00
2023-03-27T02:41:31.368Z,371.00
2023-03-27T02:42:01.411Z,369.00
2023-03-27T02:42:31.414Z,368.00
2023-03-27T02:43:01.442Z,366.00
2023-03-27T02:43:31.464Z,367.00
2023-03-27T02:44:01.485Z,368.00
2023-03-27T02:44:31.513Z,369.00
2023-03-27T02:45:01.544Z,371.00
2023-03-27T02:45:31.716Z,370.00
2023-03-27T02:46:01.747Z,367.00
2023-03-27T02:46:31.772Z,365.00
2023-03-27T02:47:01.822Z,363.00
2023-03-27T02:47:31.845Z,362.00
2023-03-27T02:48:01.928Z,363.00
2023-03-27T02:48:31.954Z,363.00
2023-03-27T02:49:01.982Z,364.00
2023-03-27T02:49:32.002Z,364.00
2023-03-27T02:50:02.057Z,362.00
2023-03-27T02:50:32.110Z,362.00
2023-03-27T02:51:02.115Z,361.00
2023-03-27T02:51:32.139Z,363.00
2023-03-27T02:52:02.175Z,364.00
2023-03-27T02:52:32.208Z,365.00
2023-03-27T02:53:02.209Z,365.00
2023-03-27T02:53:32.236Z,366.00
2023-03-27T02:54:02.256Z,367.00
2023-03-27T02:54:32.288Z,369.00
2023-03-27T02:55:02.278Z,369.00
2023-03-27T02:55:32.394Z,368.00
2023-03-27T02:56:02.502Z,368.00
2023-03-27T02:56:32.544Z,367.00
2023-03-27T02:57:02.628Z,368.00
2023-03-27T02:57:32.625Z,370.00
2023-03-27T02:58:02.614Z,369.00
2023-03-27T02:58:32.722Z,369.00
2023-03-27T02:59:02.735Z,368.00
2023-03-27T02:59:32.835Z,368.00
2023-03-27T03:00:02.835Z,367.00
2023-03-27T03:00:32.946Z,366.00
2023-03-27T03:01:03.069Z,367.00
2023-03-27T03:01:33.104Z,368.00
2023-03-27T03:02:03.259Z,367.00
2023-03-27T03:02:33.269Z,368.00
2023-03-27T03:03:03.443Z,371.00
2023-03-27T03:03:33.543Z,370.00
2023-03-27T03:04:03.563Z,370.00
2023-03-27T03:04:33.680Z,369.00
2023-03-27T03:05:03.684Z,368.00
2023-03-27T03:05:33.713Z,368.00
2023-03-27T03:06:03.730Z,366.00
2023-03-27T03:06:33.795Z,366.00
2023-03-27T03:07:03.829Z,366.00
2023-03-27T03:07:33.853Z,366.00
2023-03-27T03:08:03.908Z,365.00
2023-03-27T03:08:33.897Z,363.00
2023-03-27T03:09:03.921Z,364.00
2023-03-27T03:09:33.955Z,363.00
2023-03-27T03:10:03.992Z,364.00
2023-03-27T03:10:34.008Z,365.00
2023-03-27T03:11:04.040Z,367.00
2023-03-27T03:11:34.061Z,367.00
2023-03-27T03:12:04.123Z,367.00
2023-03-27T03:12:34.139Z,367.00
2023-03-27T03:13:04.195Z,368.00
2023-03-27T03:13:34.208Z,369.00
2023-03-27T03:14:04.243Z,368.00
2023-03-27T03:14:34.259Z,367.00
2023-03-27T03:15:04.281Z,367.00
2023-03-27T03:15:34.311Z,367.00
2023-03-27T03:16:04.366Z,366.00
2023-03-27T03:16:34.431Z,366.00
2023-03-27T03:17:04.438Z,366.00
2023-03-27T03:17:34.492Z,368.00
2023-03-27T03:18:04.551Z,368.00
2023-03-27T03:18:34.589Z,368.00
2023-03-27T03:19:04.613Z,368.00
2023-03-27T03:19:34.646Z,367.00
2023-03-27T03:20:04.662Z,366.00
2023-03-27T03:20:34.689Z,367.00
2023-03-27T03:21:04.716Z,369.00
2023-03-27T03:21:34.740Z,369.00
2023-03-27T03:22:04.773Z,368.00
2023-03-27T03:22:34.794Z,369.00
2023-03-27T03:23:04.818Z,368.00
2023-03-27T03:23:34.855Z,370.00
2023-03-27T03:24:04.886Z,369.00
2023-03-27T03:24:34.901Z,370.00
2023-03-27T03:25:04.917Z,371.00
2023-03-27T03:25:34.945Z,371.00
2023-03-27T03:26:04.967Z,371.00
2023-03-27T03:26:35.008Z,370.00
2023-03-27T03:27:05.027Z,370.00
2023-03-27T03:27:35.058Z,370.00
2023-03-27T03:28:05.075Z,372.00
2023-03-27T03:28:35.112Z,371.00
2023-03-27T03:29:05.132Z,372.00
2023-03-27T03:29:35.154Z,373.00
2023-03-27T03:30:05.169Z,372.00
2023-03-27T03:30:35.211Z,369.00
2023-03-27T03:31:05.246Z,371.00
2023-03-27T03:31:35.273Z,371.00
2023-03-27T03:32:05.296Z,370.00
2023-03-27T03:32:35.379Z,371.00
2023-03-27T03:33:05.415Z,373.00
2023-03-27T03:33:35.432Z,373.00
2023-03-27T03:34:05.453Z,374.00
2023-03-27T03:34:35.478Z,373.00
2023-03-27T03:35:05.501Z,373.00
2023-03-27T03:35:35.551Z,372.00
2023-03-27T03:36:05.591Z,373.00
2023-03-27T03:36:35.621Z,371.00
2023-03-27T03:37:05.645Z,371.00
2023-03-27T03:37:35.672Z,369.00
2023-03-27T03:38:05.700Z,368.00
2023-03-27T03:38:37.804Z,368.00
2023-03-27T03:39:05.815Z,369.00
2023-03-27T03:39:35.810Z,369.00
2023-03-27T03:40:05.834Z,369.00
2023-03-27T03:40:35.852Z,370.00
2023-03-27T03:41:05.873Z,368.00
2023-03-27T03:41:35.904Z,368.00
2023-03-27T03:42:05.930Z,367.00
2023-03-27T03:42:35.944Z,368.00
2023-03-27T03:43:05.971Z,369.00
2023-03-27T03:43:35.991Z,368.00
2023-03-27T03:44:06.046Z,368.00
2023-03-27T03:44:36.059Z,366.00
2023-03-27T03:45:06.084Z,367.00
2023-03-27T03:45:36.109Z,367.00
2023-03-27T03:46:06.139Z,367.00
2023-03-27T03:46:36.201Z,367.00
2023-03-27T03:47:06.168Z,378.00
2023-03-27T03:47:36.219Z,387.00
2023-03-27T03:48:06.268Z,387.00
2023-03-27T03:48:36.275Z,387.00
2023-03-27T03:49:06.297Z,388.00
2023-03-27T03:49:36.317Z,387.00
2023-03-27T03:50:06.352Z,385.00
2023-03-27T03:50:36.361Z,385.00
2023-03-27T03:51:06.444Z,384.00
2023-03-27T03:51:36.477Z,384.00
2023-03-27T03:52:06.488Z,385.00
2023-03-27T03:52:36.519Z,387.00
2023-03-27T03:53:06.534Z,385.00
2023-03-27T03:53:36.559Z,389.00
2023-03-27T03:54:06.590Z,391.00
2023-03-27T03:54:36.635Z,390.00
2023-03-27T03:55:06.607Z,393.00
2023-03-27T03:55:36.715Z,395.00
2023-03-27T03:56:06.835Z,398.00
2023-03-27T03:56:36.973Z,402.00
2023-03-27T03:57:07.012Z,401.00
2023-03-27T03:57:37.043Z,404.00
2023-03-27T03:58:07.024Z,404.00
2023-03-27T03:58:37.138Z,404.00
2023-03-27T03:59:07.244Z,402.00
2023-03-27T03:59:37.365Z,402.00
2023-03-27T04:00:07.479Z,400.00
2023-03-27T04:01:12.692Z,1079.00
2023-03-27T04:01:42.830Z,495.00
2023-03-27T04:02:12.801Z,445.00
2023-03-27T04:02:42.974Z,433.00
2023-03-27T04:03:13.176Z,429.00
2023-03-27T04:03:43.035Z,429.00
2023-03-27T04:04:13.035Z,428.00
2023-03-27T04:04:44.285Z,427.00
2023-03-27T04:05:13.160Z,428.00
2023-03-27T04:05:43.245Z,427.00
2023-03-27T04:06:13.317Z,425.00
2023-03-27T04:06:43.391Z,427.00
2023-03-27T04:07:13.467Z,427.00
2023-03-27T04:07:43.558Z,427.00
2023-03-27T04:08:13.626Z,431.00
2023-03-27T04:08:43.705Z,439.00
2023-03-27T04:09:13.784Z,445.00
2023-03-27T04:09:43.872Z,446.00
2023-03-27T04:10:13.928Z,447.00
2023-03-27T04:10:44.001Z,447.00
2023-03-27T04:11:14.114Z,450.00
2023-03-27T04:11:44.224Z,452.00
2023-03-27T04:12:14.334Z,452.00
2023-03-27T04:12:44.345Z,453.00
2023-03-27T04:13:14.464Z,457.00
2023-03-27T04:13:44.568Z,457.00
2023-03-27T04:14:14.681Z,458.00
2023-03-27T04:14:44.792Z,458.00
2023-03-27T04:15:14.903Z,458.00
2023-03-27T04:15:45.062Z,459.00
2023-03-27T04:16:15.083Z,460.00
2023-03-27T04:16:45.112Z,462.00
2023-03-27T04:17:15.212Z,462.00
2023-03-27T04:17:45.406Z,460.00
2023-03-27T04:18:15.531Z,459.00
2023-03-27T04:18:45.505Z,456.00
2023-03-27T04:19:15.478Z,453.00
2023-03-27T04:19:45.591Z,450.00
2023-03-27T04:20:15.698Z,451.00
2023-03-27T04:20:45.820Z,452.00
2023-03-27T04:21:15.930Z,451.00
2023-03-27T04:21:46.038Z,450.00
2023-03-27T04:22:16.147Z,450.00
2023-03-27T04:22:46.302Z,448.00
2023-03-27T04:23:16.301Z,448.00
2023-03-27T04:23:46.407Z,445.00
2023-03-27T04:24:16.517Z,446.00
2023-03-27T04:24:46.654Z,447.00
2023-03-27T04:25:16.757Z,446.00
2023-03-27T04:25:46.932Z,444.00
2023-03-27T04:26:16.972Z,445.00
2023-03-27T04:26:46.971Z,446.00
2023-03-27T04:27:17.089Z,449.00
2023-03-27T04:27:47.214Z,453.00
2023-03-27T04:28:17.198Z,455.00
2023-03-27T04:28:47.323Z,460.00
2023-03-27T04:29:17.317Z,465.00
2023-03-27T04:29:47.531Z,467.00
2023-03-27T04:30:17.492Z,472.00
2023-03-27T04:30:47.601Z,452.00
2023-03-27T04:31:17.745Z,483.00
2023-03-27T04:31:47.735Z,491.00
2023-03-27T04:32:17.834Z,491.00
2023-03-27T04:32:47.974Z,491.00
2023-03-27T04:33:17.930Z,491.00
2023-03-27T04:33:48.044Z,492.00
2023-03-27T04:34:18.158Z,491.00
2023-03-27T04:34:48.306Z,492.00
2023-03-27T04:35:18.311Z,492.00
2023-03-27T04:36:06.084Z,492.00
2023-03-27T04:36:18.432Z,494.00
2023-03-27T04:36:48.401Z,493.00
2023-03-27T04:37:18.517Z,493.00
2023-03-27T04:37:48.575Z,492.00
2023-03-27T04:38:18.558Z,490.00
2023-03-27T04:38:48.661Z,490.00
2023-03-27T04:39:18.770Z,490.00
2023-03-27T04:39:48.887Z,491.00
2023-03-27T04:40:19.029Z,490.00
2023-03-27T04:40:49.170Z,490.00
2023-03-27T04:41:19.209Z,489.00
2023-03-27T04:41:49.332Z,488.00
2023-03-27T04:42:19.429Z,488.00
2023-03-27T04:42:49.599Z,486.00
2023-03-27T04:43:19.571Z,485.00
2023-03-27T04:43:49.668Z,486.00
2023-03-27T04:44:19.824Z,487.00
2023-03-27T04:44:50.150Z,486.00
2023-03-27T04:45:19.883Z,486.00
2023-03-27T04:46:20.110Z,484.00
2023-03-27T04:46:50.131Z,477.00
2023-03-27T04:47:20.112Z,480.00
2023-03-27T04:47:50.179Z,481.00
2023-03-27T04:48:20.164Z,479.00
2023-03-27T04:48:50.281Z,480.00
2023-03-27T04:49:20.540Z,480.00
2023-03-27T04:49:50.410Z,478.00
2023-03-27T04:50:20.520Z,477.00
2023-03-27T04:50:50.655Z,474.00
2023-03-27T04:51:20.754Z,478.00
2023-03-27T04:51:50.860Z,477.00
2023-03-27T04:52:20.976Z,476.00
2023-03-27T04:52:51.091Z,475.00
2023-03-27T04:53:21.203Z,477.00
2023-03-27T04:53:51.191Z,482.00
2023-03-27T04:54:21.299Z,486.00
2023-03-27T04:54:51.425Z,490.00
2023-03-27T04:55:21.411Z,490.00
2023-03-27T04:55:51.554Z,490.00
2023-03-27T04:56:21.640Z,490.00
2023-03-27T04:56:51.767Z,490.00
2023-03-27T04:57:21.885Z,489.00
2023-03-27T04:57:51.962Z,489.00
2023-03-27T04:58:22.067Z,491.00
2023-03-27T04:59:29.599Z,497.00
2023-03-27T04:59:59.756Z,490.00
2023-03-27T05:00:29.702Z,491.00
2023-03-27T05:01:00.058Z,492.00
2023-03-27T05:01:29.861Z,489.00
2023-03-27T05:01:59.865Z,489.00
2023-03-27T05:02:59.944Z,488.00
2023-03-27T05:03:29.927Z,487.00
2023-03-27T05:04:00.027Z,487.00
2023-03-27T05:04:30.050Z,486.00
2023-03-27T05:05:00.171Z,483.00
2023-03-27T05:05:30.165Z,482.00
2023-03-27T05:06:00.234Z,478.00
2023-03-27T05:06:30.303Z,476.00
2023-03-27T05:07:00.395Z,475.00
2023-03-27T05:07:30.456Z,474.00
2023-03-27T05:08:00.534Z,474.00
2023-03-27T05:08:30.612Z,473.00
2023-03-27T05:09:00.694Z,474.00
2023-03-27T05:09:30.803Z,471.00
2023-03-27T05:10:00.911Z,472.00
2023-03-27T05:10:31.034Z,473.00
2023-03-27T05:11:01.158Z,472.00
2023-03-27T05:11:31.267Z,472.00
2023-03-27T05:12:01.252Z,472.00
2023-03-27T05:12:31.364Z,471.00
2023-03-27T05:13:01.514Z,471.00
2023-03-27T05:13:31.486Z,471.00
2023-03-27T05:14:01.598Z,468.00
2023-03-27T05:14:31.737Z,469.00
2023-03-27T05:15:01.749Z,469.00
2023-03-27T05:15:31.859Z,470.00
2023-03-27T05:16:02.080Z,469.00
2023-03-27T05:16:32.082Z,469.00
2023-03-27T05:17:02.069Z,467.00
2023-03-27T05:17:32.189Z,466.00
2023-03-27T05:18:02.366Z,465.00
2023-03-27T05:18:32.390Z,467.00
2023-03-27T05:19:02.503Z,477.00
2023-03-27T05:19:32.610Z,476.00
2023-03-27T05:20:02.727Z,471.00
2023-03-27T05:20:32.739Z,472.00
2023-03-27T05:21:02.862Z,476.00
2023-03-27T05:21:32.914Z,476.00
2023-03-27T05:22:03.031Z,475.00
2023-03-27T05:22:33.140Z,475.00
2023-03-27T05:23:03.269Z,476.00
2023-03-27T05:23:33.269Z,479.00
2023-03-27T05:24:03.367Z,478.00
2023-03-27T05:24:33.360Z,478.00
2023-03-27T05:25:03.477Z,480.00
2023-03-27T05:25:33.468Z,478.00
2023-03-27T05:26:03.605Z,477.00
2023-03-27T05:26:33.678Z,476.00
2023-03-27T05:27:03.809Z,476.00
2023-03-27T05:27:33.904Z,479.00
2023-03-27T05:28:04.027Z,479.00
2023-03-27T05:28:34.022Z,479.00
2023-03-27T05:29:04.122Z,479.00
2023-03-27T05:29:47.349Z,478.00
2023-03-27T05:30:04.241Z,481.00
2023-03-27T05:30:34.371Z,483.00
2023-03-27T05:31:04.395Z,481.00
2023-03-27T05:31:34.476Z,484.00
2023-03-27T05:32:04.590Z,483.00
2023-03-27T05:32:34.728Z,484.00
2023-03-27T05:33:04.737Z,485.00
2023-03-27T05:33:34.725Z,486.00
2023-03-27T05:34:04.839Z,485.00
2023-03-27T05:34:34.954Z,484.00
2023-03-27T05:35:05.074Z,485.00
2023-03-27T05:35:35.190Z,485.00
2023-03-27T05:36:05.294Z,484.00
2023-03-27T05:36:35.414Z,486.00
2023-03-27T05:37:05.512Z,488.00
2023-03-27T05:37:35.620Z,489.00
2023-03-27T05:38:05.763Z,489.00
2023-03-27T05:38:35.744Z,488.00
2023-03-27T05:39:05.855Z,487.00
2023-03-27T05:39:35.958Z,485.00
2023-03-27T05:40:06.090Z,482.00
2023-03-27T05:40:36.194Z,478.00
2023-03-27T05:41:06.330Z,477.00
2023-03-27T05:41:36.416Z,480.00
2023-03-27T05:42:06.564Z,481.00
2023-03-27T05:42:36.559Z,482.00
2023-03-27T05:43:06.670Z,479.00
2023-03-27T05:43:36.789Z,479.00
2023-03-27T05:44:06.899Z,479.00
2023-03-27T05:44:36.893Z,480.00
2023-03-27T05:45:07.004Z,479.00
2023-03-27T05:45:37.125Z,481.00
2023-03-27T05:46:07.260Z,481.00
2023-03-27T05:46:37.289Z,481.00
2023-03-27T05:47:07.292Z,479.00
2023-03-27T05:47:37.442Z,481.00
2023-03-27T05:48:07.545Z,481.00
2023-03-27T05:48:37.502Z,478.00
2023-03-27T05:49:07.487Z,477.00
2023-03-27T05:49:37.596Z,478.00
2023-03-27T05:50:07.710Z,477.00
2023-03-27T05:50:37.703Z,478.00
2023-03-27T05:51:07.818Z,476.00
2023-03-27T05:51:37.928Z,475.00
2023-03-27T05:52:08.044Z,473.00
2023-03-27T05:52:38.154Z,473.00
2023-03-27T05:53:08.273Z,471.00
2023-03-27T05:53:38.388Z,469.00
2023-03-27T05:54:08.401Z,467.00
2023-03-27T05:54:38.484Z,470.00
2023-03-27T05:55:08.551Z,471.00
2023-03-27T05:55:38.673Z,472.00
2023-03-27T05:56:08.862Z,472.00
2023-03-27T05:56:38.870Z,472.00
2023-03-27T05:57:08.893Z,473.00
2023-03-27T05:57:38.878Z,474.00
2023-03-27T05:58:08.998Z,474.00
2023-03-27T05:58:39.109Z,472.00
2023-03-27T05:59:09.234Z,470.00
2023-03-27T05:59:39.288Z,466.00
2023-03-27T06:00:09.377Z,469.00
2023-03-27T06:00:39.447Z,469.00
2023-03-27T06:01:09.545Z,469.00
2023-03-27T06:01:39.613Z,469.00
2023-03-27T06:02:09.773Z,469.00
2023-03-27T06:02:39.829Z,469.00
2023-03-27T06:03:09.916Z,469.00
2023-03-27T06:03:39.873Z,469.00
2023-03-27T06:04:09.966Z,468.00
2023-03-27T06:04:39.963Z,467.00
2023-03-27T06:05:10.016Z,468.00
2023-03-27T06:05:40.098Z,469.00
2023-03-27T06:06:10.168Z,470.00
2023-03-27T06:06:40.238Z,471.00
2023-03-27T06:07:10.313Z,470.00
2023-03-27T06:07:42.548Z,470.00
2023-03-27T06:08:10.491Z,470.00
2023-03-27T06:08:40.617Z,469.00
2023-03-27T06:09:10.685Z,469.00
2023-03-27T06:09:40.676Z,472.00
2023-03-27T06:10:13.558Z,471.00
2023-03-27T06:10:40.828Z,469.00
2023-03-27T06:11:10.970Z,466.00
2023-03-27T06:11:41.082Z,467.00
2023-03-27T06:12:11.050Z,468.00
2023-03-27T06:12:41.168Z,469.00
2023-03-27T06:13:11.281Z,469.00
2023-03-27T06:13:41.391Z,471.00
2023-03-27T06:14:11.510Z,469.00
2023-03-27T06:14:41.622Z,469.00
2023-03-27T06:15:11.742Z,469.00
2023-03-27T06:15:41.890Z,466.00
2023-03-27T06:16:11.979Z,469.00
2023-03-27T06:16:41.997Z,472.00
2023-03-27T06:17:11.982Z,472.00
2023-03-27T06:17:42.130Z,477.00
2023-03-27T06:18:12.180Z,480.00